sensor_id;sensor_type;location;lat;lon;timestamp;pressure;altitude;pressure_sealevel;temperature;humidity
57894;BME280;43710;47.460;19.034;2023-03-20T04:57:47;100556.94;;;11.16;65.88
57894;BME280;43710;47.460;19.034;2023-03-20T05:00:50;100556.94;;;11.16;65.88
57894;BME280;43710;47.460;19.034;2023-03-20T05:03:52;100560.72;;;10.70;52.68
57894;BME280;43710;47.460;19.034;2023-03-20T05:07:03;100563.09;;;10.77;60.21
57894;BME280;43710;47.460;19.034;2023-03-20T05:10:06;100564.12;;;10.86;61.83
57894;BME280;43710;47.460;19.034;2023-03-20T05:13:11;100560.62;;;10.86;52.94
57894;BME280;43710;47.460;19.034;2023-03-20T05:16:14;100561.41;;;10.91;62.08
57894;BME280;43710;47.460;19.034;2023-03-20T05:19:17;100568.44;;;11.21;72.77
57894;BME280;43710;47.460;19.034;2023-03-20T05:22:21;100576.00;;;11.14;58.92
57894;BME280;43710;47.460;19.034;2023-03-20T05:25:23;100575.53;;;11.02;57.99
57894;BME280;43710;47.460;19.034;2023-03-20T05:28:26;100580.72;;;10.88;52.50
57894;BME280;43710;47.460;19.034;2023-03-20T05:31:29;100586.28;;;11.02;63.76
57894;BME280;43710;47.460;19.034;2023-03-20T05:34:32;100582.97;;;11.15;62.34
57894;BME280;43710;47.460;19.034;2023-03-20T05:37:35;100584.12;;;11.43;63.42
57894;BME280;43710;47.460;19.034;2023-03-20T05:40:38;100583.84;;;11.45;66.57
57894;BME280;43710;47.460;19.034;2023-03-20T05:43:45;100589.75;;;11.42;54.29
57894;BME280;43710;47.460;19.034;2023-03-20T05:46:48;100588.78;;;11.33;65.01
57894;BME280;43710;47.460;19.034;2023-03-20T05:49:51;100583.22;;;11.19;53.18
57894;BME280;43710;47.460;19.034;2023-03-20T05:52:53;100581.16;;;11.05;54.51
57894;BME280;43710;47.460;19.034;2023-03-20T05:55:56;100585.78;;;11.00;50.18
57894;BME280;43710;47.460;19.034;2023-03-20T05:59:00;100589.75;;;11.08;50.81
57894;BME280;43710;47.460;19.034;2023-03-20T06:02:05;100591.38;;;11.03;53.84
57894;BME280;43710;47.460;19.034;2023-03-20T06:05:08;100588.22;;;10.96;51.70
57894;BME280;43710;47.460;19.034;2023-03-20T06:08:13;100598.34;;;11.04;54.43
57894;BME280;43710;47.460;19.034;2023-03-20T06:11:17;100598.59;;;11.08;51.19
57894;BME280;43710;47.460;19.034;2023-03-20T06:14:19;100608.19;;;11.19;53.86
57894;BME280;43710;47.460;19.034;2023-03-20T06:17:22;100611.34;;;11.26;55.47
57894;BME280;43710;47.460;19.034;2023-03-20T06:20:25;100610.19;;;11.38;51.31
57894;BME280;43710;47.460;19.034;2023-03-20T06:23:28;100605.31;;;11.45;49.07
57894;BME280;43710;47.460;19.034;2023-03-20T06:26:31;100608.53;;;11.47;48.43
57894;BME280;43710;47.460;19.034;2023-03-20T06:29:34;100605.22;;;11.55;47.79
57894;BME280;43710;47.460;19.034;2023-03-20T06:32:38;100607.34;;;11.58;48.06
57894;BME280;43710;47.460;19.034;2023-03-20T06:35:44;100601.81;;;11.44;47.68
57894;BME280;43710;47.460;19.034;2023-03-20T06:38:47;100605.28;;;11.50;49.02
57894;BME280;43710;47.460;19.034;2023-03-20T06:41:50;100605.72;;;11.62;48.04
57894;BME280;43710;47.460;19.034;2023-03-20T06:44:57;100612.53;;;11.49;46.27
57894;BME280;43710;47.460;19.034;2023-03-20T06:48:01;100610.09;;;11.53;46.81
57894;BME280;43710;47.460;19.034;2023-03-20T06:51:03;100615.94;;;11.60;46.42
57894;BME280;43710;47.460;19.034;2023-03-20T06:54:06;100615.63;;;11.67;45.85
57894;BME280;43710;47.460;19.034;2023-03-20T06:57:08;100604.13;;;11.95;59.73
57894;BME280;43710;47.460;19.034;2023-03-20T07:00:11;100607.41;;;12.16;56.42
57894;BME280;43710;47.460;19.034;2023-03-20T07:03:15;100610.31;;;12.20;48.97
57894;BME280;43710;47.460;19.034;2023-03-20T07:06:18;100608.41;;;12.20;45.30
57894;BME280;43710;47.460;19.034;2023-03-20T07:09:20;100607.63;;;12.44;58.27
57894;BME280;43710;47.460;19.034;2023-03-20T07:12:26;100612.34;;;12.76;54.66
57894;BME280;43710;47.460;19.034;2023-03-20T07:15:32;100610.25;;;12.92;45.64
57894;BME280;43710;47.460;19.034;2023-03-20T07:18:35;100612.06;;;12.97;52.78
57894;BME280;43710;47.460;19.034;2023-03-20T07:21:38;100618.84;;;13.13;52.62
57894;BME280;43710;47.460;19.034;2023-03-20T07:24:41;100612.59;;;12.99;42.88
57894;BME280;43710;47.460;19.034;2023-03-20T07:27:45;100611.41;;;12.86;42.29
57894;BME280;43710;47.460;19.034;2023-03-20T07:30:53;100610.75;;;12.94;44.05
57894;BME280;43710;47.460;19.034;2023-03-20T07:33:57;100614.97;;;13.00;44.46
57894;BME280;43710;47.460;19.034;2023-03-20T07:37:00;100608.88;;;13.13;52.20
57894;BME280;43710;47.460;19.034;2023-03-20T07:40:05;100608.66;;;13.10;41.63
57894;BME280;43710;47.460;19.034;2023-03-20T07:43:08;100612.94;;;13.11;41.17
57894;BME280;43710;47.460;19.034;2023-03-20T07:46:12;100609.97;;;12.93;41.80
57894;BME280;43710;47.460;19.034;2023-03-20T07:49:16;100620.91;;;13.21;50.11
57894;BME280;43710;47.460;19.034;2023-03-20T07:52:20;100623.00;;;13.43;46.75
57894;BME280;43710;47.460;19.034;2023-03-20T07:55:22;100621.13;;;13.25;46.44
57894;BME280;43710;47.460;19.034;2023-03-20T07:58:24;100614.81;;;13.34;44.26
57894;BME280;43710;47.460;19.034;2023-03-20T08:01:27;100627.91;;;13.41;43.85
57894;BME280;43710;47.460;19.034;2023-03-20T08:04:29;100634.44;;;13.35;40.43
57894;BME280;43710;47.460;19.034;2023-03-20T08:07:32;100630.88;;;13.39;45.23
57894;BME280;43710;47.460;19.034;2023-03-20T08:10:34;100628.44;;;13.57;43.06
57894;BME280;43710;47.460;19.034;2023-03-20T08:13:37;100633.19;;;13.46;40.55
57894;BME280;43710;47.460;19.034;2023-03-20T08:16:39;100633.28;;;13.74;54.35
57894;BME280;43710;47.460;19.034;2023-03-20T08:19:41;100640.34;;;14.02;53.26
57894;BME280;43710;47.460;19.034;2023-03-20T08:22:44;100631.25;;;13.98;43.25
57894;BME280;43710;47.460;19.034;2023-03-20T08:25:50;100632.97;;;14.08;50.43
57894;BME280;43710;47.460;19.034;2023-03-20T08:28:53;100631.53;;;13.97;39.30
57894;BME280;43710;47.460;19.034;2023-03-20T08:31:55;100642.62;;;13.95;42.58
57894;BME280;43710;47.460;19.034;2023-03-20T08:34:59;100634.53;;;13.95;42.56
57894;BME280;43710;47.460;19.034;2023-03-20T08:38:02;100635.97;;;14.06;39.42
57894;BME280;43710;47.460;19.034;2023-03-20T08:41:06;100643.25;;;14.06;39.64
57894;BME280;43710;47.460;19.034;2023-03-20T08:44:08;100638.84;;;14.10;39.31
57894;BME280;43710;47.460;19.034;2023-03-20T08:47:10;100631.59;;;14.10;47.55
57894;BME280;43710;47.460;19.034;2023-03-20T08:50:13;100626.41;;;14.28;40.98
57894;BME280;43710;47.460;19.034;2023-03-20T08:53:16;100635.84;;;14.58;50.59
57894;BME280;43710;47.460;19.034;2023-03-20T08:56:18;100641.53;;;14.70;49.45
57894;BME280;43710;47.460;19.034;2023-03-20T08:59:20;100640.63;;;14.61;40.57
57894;BME280;43710;47.460;19.034;2023-03-20T09:02:23;100646.09;;;14.70;46.12
57894;BME280;43710;47.460;19.034;2023-03-20T09:05:26;100640.00;;;14.78;39.88
57894;BME280;43710;47.460;19.034;2023-03-20T09:08:28;100648.81;;;14.70;41.06
57894;BME280;43710;47.460;19.034;2023-03-20T09:11:31;100643.63;;;14.60;39.12
57894;BME280;43710;47.460;19.034;2023-03-20T09:14:34;100650.63;;;14.74;40.91
57894;BME280;43710;47.460;19.034;2023-03-20T09:17:38;100648.13;;;14.78;40.39
57894;BME280;43710;47.460;19.034;2023-03-20T09:20:40;100640.00;;;14.78;42.14
57894;BME280;43710;47.460;19.034;2023-03-20T09:23:43;100647.59;;;14.76;39.45
57894;BME280;43710;47.460;19.034;2023-03-20T09:26:45;100641.19;;;14.86;41.34
57894;BME280;43710;47.460;19.034;2023-03-20T09:29:47;100644.47;;;14.96;43.61
57894;BME280;43710;47.460;19.034;2023-03-20T09:32:49;100644.28;;;15.07;40.08
57894;BME280;43710;47.460;19.034;2023-03-20T09:35:52;100647.13;;;15.24;41.87
57894;BME280;43710;47.460;19.034;2023-03-20T09:38:55;100643.78;;;15.41;42.48
57894;BME280;43710;47.460;19.034;2023-03-20T09:42:07;100648.31;;;15.54;47.17
57894;BME280;43710;47.460;19.034;2023-03-20T09:48:47;100637.75;;;15.44;41.06
57894;BME280;43710;47.460;19.034;2023-03-20T09:52:29;100646.16;;;15.65;54.15
57894;BME280;43710;47.460;19.034;2023-03-20T09:55:36;100633.94;;;15.45;37.35
57894;BME280;43710;47.460;19.034;2023-03-20T09:58:41;100637.63;;;15.49;47.36
57894;BME280;43710;47.460;19.034;2023-03-20T10:04:54;100635.34;;;15.42;39.30
57894;BME280;43710;47.460;19.034;2023-03-20T10:07:59;100638.22;;;15.46;43.86
57894;BME280;43710;47.460;19.034;2023-03-20T10:14:58;100638.41;;;15.49;58.05
57894;BME280;43710;47.460;19.034;2023-03-20T10:18:17;100642.16;;;15.62;39.46
57894;BME280;43710;47.460;19.034;2023-03-20T10:21:33;100633.09;;;15.58;39.76
57894;BME280;43710;47.460;19.034;2023-03-20T10:24:41;100631.81;;;15.78;42.67
57894;BME280;43710;47.460;19.034;2023-03-20T10:41:34;100618.22;;;15.92;38.84
57894;BME280;43710;47.460;19.034;2023-03-20T10:44:41;100621.06;;;15.87;49.29
57894;BME280;43710;47.460;19.034;2023-03-20T10:47:51;100614.16;;;16.03;46.22
57894;BME280;43710;47.460;19.034;2023-03-20T10:50:56;100615.53;;;16.32;50.22
57894;BME280;43710;47.460;19.034;2023-03-20T10:54:02;100616.53;;;16.36;40.46
57894;BME280;43710;47.460;19.034;2023-03-20T10:57:22;100615.34;;;16.28;38.50
57894;BME280;43710;47.460;19.034;2023-03-20T11:00:25;100604.34;;;16.16;38.28
57894;BME280;43710;47.460;19.034;2023-03-20T11:03:30;100603.41;;;16.20;38.23
57894;BME280;43710;47.460;19.034;2023-03-20T11:06:42;100605.00;;;16.21;39.22
57894;BME280;43710;47.460;19.034;2023-03-20T11:10:07;100595.81;;;16.31;53.38
57894;BME280;43710;47.460;19.034;2023-03-20T11:13:33;100591.34;;;16.35;50.14
57894;BME280;43710;47.460;19.034;2023-03-20T11:16:35;100586.41;;;16.29;39.48
57894;BME280;43710;47.460;19.034;2023-03-20T11:19:40;100586.56;;;16.32;39.31
57894;BME280;43710;47.460;19.034;2023-03-20T11:22:43;100571.31;;;16.45;41.56
57894;BME280;43710;47.460;19.034;2023-03-20T11:25:59;100570.69;;;16.39;38.17
57894;BME280;43710;47.460;19.034;2023-03-20T11:29:05;100572.13;;;16.37;39.10
57894;BME280;43710;47.460;19.034;2023-03-20T11:32:32;100572.13;;;16.37;38.31
57894;BME280;43710;47.460;19.034;2023-03-20T11:35:44;100565.91;;;16.45;42.74
57894;BME280;43710;47.460;19.034;2023-03-20T11:38:48;100564.34;;;16.44;39.30
57894;BME280;43710;47.460;19.034;2023-03-20T11:41:53;100561.94;;;16.51;44.27
57894;BME280;43710;47.460;19.034;2023-03-20T11:45:25;100551.28;;;16.46;37.76
57894;BME280;43710;47.460;19.034;2023-03-20T11:48:38;100558.66;;;16.63;38.83
57894;BME280;43710;47.460;19.034;2023-03-20T11:51:41;100560.25;;;16.73;39.46
57894;BME280;43710;47.460;19.034;2023-03-20T11:54:50;100553.06;;;16.68;37.18
57894;BME280;43710;47.460;19.034;2023-03-20T11:58:00;100558.16;;;16.61;37.83
57894;BME280;43710;47.460;19.034;2023-03-20T12:01:04;100553.22;;;16.63;38.01
57894;BME280;43710;47.460;19.034;2023-03-20T12:04:18;100546.53;;;16.60;37.46
57894;BME280;43710;47.460;19.034;2023-03-20T12:07:32;100547.31;;;16.61;39.85
57894;BME280;43710;47.460;19.034;2023-03-20T12:10:41;100541.94;;;16.78;43.63
57894;BME280;43710;47.460;19.034;2023-03-20T12:13:45;100542.47;;;16.89;41.98
57894;BME280;43710;47.460;19.034;2023-03-20T12:16:54;100542.13;;;16.90;42.75
57894;BME280;43710;47.460;19.034;2023-03-20T12:20:19;100534.66;;;16.79;39.13
57894;BME280;43710;47.460;19.034;2023-03-20T12:23:31;100535.56;;;16.74;37.49
57894;BME280;43710;47.460;19.034;2023-03-20T12:26:41;100531.09;;;16.70;37.80
57894;BME280;43710;47.460;19.034;2023-03-20T12:29:50;100534.81;;;16.82;45.97
57894;BME280;43710;47.460;19.034;2023-03-20T12:36:34;100532.41;;;16.89;39.03
57894;BME280;43710;47.460;19.034;2023-03-20T12:39:47;100520.00;;;16.80;48.97
57894;BME280;43710;47.460;19.034;2023-03-20T12:43:14;100536.69;;;16.73;38.13
57894;BME280;43710;47.460;19.034;2023-03-20T12:47:21;100531.28;;;16.73;39.04
57894;BME280;43710;47.460;19.034;2023-03-20T12:53:36;100523.16;;;16.73;37.92
57894;BME280;43710;47.460;19.034;2023-03-20T13:00:15;100518.41;;;16.79;37.46
57894;BME280;43710;47.460;19.034;2023-03-20T13:06:50;100513.25;;;16.68;38.71
57894;BME280;43710;47.460;19.034;2023-03-20T13:10:07;100508.22;;;16.76;38.15
57894;BME280;43710;47.460;19.034;2023-03-20T13:13:22;100509.16;;;16.80;38.71
57894;BME280;43710;47.460;19.034;2023-03-20T13:17:24;100501.78;;;16.72;38.22
57894;BME280;43710;47.460;19.034;2023-03-20T13:20:25;100507.19;;;16.72;41.63
57894;BME280;43710;47.460;19.034;2023-03-20T13:40:02;100488.78;;;16.82;38.21
57894;BME280;43710;47.460;19.034;2023-03-20T13:46:33;100479.38;;;16.97;43.83
57894;BME280;43710;47.460;19.034;2023-03-20T13:49:40;100482.53;;;17.08;50.15
57894;BME280;43710;47.460;19.034;2023-03-20T13:52:50;100474.72;;;17.15;50.13
57894;BME280;43710;47.460;19.034;2023-03-20T13:56:05;100479.50;;;17.09;43.24
57894;BME280;43710;47.460;19.034;2023-03-20T13:59:29;100482.22;;;17.09;45.59
57894;BME280;43710;47.460;19.034;2023-03-20T14:05:42;100481.63;;;16.86;39.58
57894;BME280;43710;47.460;19.034;2023-03-20T14:08:57;100472.69;;;16.86;39.63
57894;BME280;43710;47.460;19.034;2023-03-20T14:12:05;100477.00;;;16.96;40.66
57894;BME280;43710;47.460;19.034;2023-03-20T14:15:10;100477.78;;;16.96;41.13
57894;BME280;43710;47.460;19.034;2023-03-20T14:18:17;100480.78;;;17.03;43.40
57894;BME280;43710;47.460;19.034;2023-03-20T14:21:22;100473.94;;;16.97;39.60
57894;BME280;43710;47.460;19.034;2023-03-20T14:24:26;100482.38;;;17.04;39.41
57894;BME280;43710;47.460;19.034;2023-03-20T14:27:51;100472.81;;;17.07;41.73
57894;BME280;43710;47.460;19.034;2023-03-20T14:34:16;100476.16;;;17.04;40.57
57894;BME280;43710;47.460;19.034;2023-03-20T14:37:36;100471.09;;;17.02;40.94
57894;BME280;43710;47.460;19.034;2023-03-20T14:40:55;100464.41;;;17.00;41.35
57894;BME280;43710;47.460;19.034;2023-03-20T14:47:56;100478.38;;;17.10;40.66
57894;BME280;43710;47.460;19.034;2023-03-20T14:57:32;100469.12;;;17.20;40.69
57894;BME280;43710;47.460;19.034;2023-03-20T15:00:53;100468.19;;;17.16;40.42
57894;BME280;43710;47.460;19.034;2023-03-20T15:04:07;100466.91;;;17.13;42.59
57894;BME280;43710;47.460;19.034;2023-03-20T15:07:16;100459.88;;;17.21;44.07
57894;BME280;43710;47.460;19.034;2023-03-20T15:10:19;100456.53;;;17.24;43.52
57894;BME280;43710;47.460;19.034;2023-03-20T15:13:22;100462.88;;;17.28;41.12
57894;BME280;43710;47.460;19.034;2023-03-20T15:16:31;100462.56;;;17.30;46.27
57894;BME280;43710;47.460;19.034;2023-03-20T15:19:38;100458.16;;;17.17;41.36
57894;BME280;43710;47.460;19.034;2023-03-20T15:22:49;100443.81;;;17.16;41.34
57894;BME280;43710;47.460;19.034;2023-03-20T15:25:52;100450.66;;;17.13;42.62
57894;BME280;43710;47.460;19.034;2023-03-20T15:29:05;100453.72;;;17.12;43.20
57894;BME280;43710;47.460;19.034;2023-03-20T15:32:10;100454.94;;;17.14;44.20
57894;BME280;43710;47.460;19.034;2023-03-20T15:35:19;100454.16;;;17.14;43.38
57894;BME280;43710;47.460;19.034;2023-03-20T15:38:27;100454.66;;;17.16;42.50
57894;BME280;43710;47.460;19.034;2023-03-20T15:41:32;100449.69;;;17.18;50.36
57894;BME280;43710;47.460;19.034;2023-03-20T15:44:44;100456.56;;;17.16;42.80
57894;BME280;43710;47.460;19.034;2023-03-20T15:47:46;100443.81;;;17.16;42.82
57894;BME280;43710;47.460;19.034;2023-03-20T15:50:52;100450.66;;;17.13;42.88
57894;BME280;43710;47.460;19.034;2023-03-20T15:53:55;100448.44;;;17.16;42.72
57894;BME280;43710;47.460;19.034;2023-03-20T15:56:58;100442.19;;;17.15;42.98
57894;BME280;43710;47.460;19.034;2023-03-20T16:00:05;100451.78;;;17.12;44.73
57894;BME280;43710;47.460;19.034;2023-03-20T16:03:13;100441.09;;;17.07;43.57
57894;BME280;43710;47.460;19.034;2023-03-20T16:06:18;100443.81;;;17.07;43.25
57894;BME280;43710;47.460;19.034;2023-03-20T16:09:22;100443.66;;;17.12;43.66
57894;BME280;43710;47.460;19.034;2023-03-20T16:12:25;100455.75;;;17.15;44.69
57894;BME280;43710;47.460;19.034;2023-03-20T16:15:29;100459.12;;;17.12;44.36
57894;BME280;43710;47.460;19.034;2023-03-20T16:18:35;100456.56;;;17.07;43.87
57894;BME280;43710;47.460;19.034;2023-03-20T16:21:39;100464.34;;;17.08;45.04
57894;BME280;43710;47.460;19.034;2023-03-20T16:24:48;100464.53;;;17.03;47.73
